Terminal Aerodrome Forecast
Issued by NWS

Home | Current Version | Previous Version | Text Only | Print | Product List | Glossary On
Versions: 1 2 3 4 5 6 7 8 9 10 11 12 13 14 15 16 17
000
FTUS41 KBOX 040535
TAFFMH
TAF
KFMH 040535Z 0406/0506 02004KT P6SM BKN008
     FM041400 05008KT P6SM VCSH OVC040
     FM042100 06011G21KT 6SM -RA OVC030
     FM042300 05010G22KT 6SM -RA BR OVC008=

USA.gov is the U.S. government's official web portal to all federal, state and local government web resources and services.